sensor_id;sensor_type;location;lat;lon;timestamp;P1;durP1;ratioP1;P2;durP2;ratioP2
68579;SDS011;55555;52.136;5.424;2022-12-07T00:01:40;9.35;;;4.70;;
68579;SDS011;55555;52.136;5.424;2022-12-07T00:04:10;10.48;;;4.85;;
68579;SDS011;55555;52.136;5.424;2022-12-07T00:06:41;9.30;;;4.97;;
68579;SDS011;55555;52.136;5.424;2022-12-07T00:09:12;9.40;;;4.70;;
68579;SDS011;55555;52.136;5.424;2022-12-07T00:11:42;12.60;;;5.60;;
68579;SDS011;55555;52.136;5.424;2022-12-07T00:14:11;13.63;;;5.30;;
68579;SDS011;55555;52.136;5.424;2022-12-07T00:16:41;16.10;;;5.38;;
68579;SDS011;55555;52.136;5.424;2022-12-07T00:19:10;10.60;;;4.75;;
68579;SDS011;55555;52.136;5.424;2022-12-07T00:21:40;10.20;;;4.53;;
68579;SDS011;55555;52.136;5.424;2022-12-07T00:24:07;11.90;;;4.83;;
68579;SDS011;55555;52.136;5.424;2022-12-07T00:26:37;13.82;;;4.85;;
68579;SDS011;55555;52.136;5.424;2022-12-07T00:29:07;11.27;;;4.88;;
68579;SDS011;55555;52.136;5.424;2022-12-07T00:31:43;11.05;;;5.10;;
68579;SDS011;55555;52.136;5.424;2022-12-07T00:34:14;12.68;;;4.72;;
68579;SDS011;55555;52.136;5.424;2022-12-07T00:36:44;9.07;;;4.70;;
68579;SDS011;55555;52.136;5.424;2022-12-07T00:39:11;10.43;;;5.05;;
68579;SDS011;55555;52.136;5.424;2022-12-07T00:41:38;10.52;;;4.78;;
68579;SDS011;55555;52.136;5.424;2022-12-07T00:44:05;11.20;;;4.45;;
68579;SDS011;55555;52.136;5.424;2022-12-07T00:46:33;12.00;;;4.70;;
68579;SDS011;55555;52.136;5.424;2022-12-07T00:49:00;10.27;;;5.03;;
68579;SDS011;55555;52.136;5.424;2022-12-07T00:51:27;14.48;;;5.45;;
68579;SDS011;55555;52.136;5.424;2022-12-07T00:53:54;12.30;;;4.90;;
68579;SDS011;55555;52.136;5.424;2022-12-07T00:56:22;14.43;;;4.95;;
68579;SDS011;55555;52.136;5.424;2022-12-07T00:58:56;10.80;;;5.18;;
68579;SDS011;55555;52.136;5.424;2022-12-07T01:01:27;8.97;;;4.10;;
68579;SDS011;55555;52.136;5.424;2022-12-07T01:04:00;12.02;;;4.90;;
68579;SDS011;55555;52.136;5.424;2022-12-07T01:06:28;11.52;;;4.68;;
68579;SDS011;55555;52.136;5.424;2022-12-07T01:08:55;13.55;;;4.75;;
68579;SDS011;55555;52.136;5.424;2022-12-07T01:11:24;12.07;;;4.93;;
68579;SDS011;55555;52.136;5.424;2022-12-07T01:13:55;13.17;;;4.90;;
68579;SDS011;55555;52.136;5.424;2022-12-07T01:16:24;10.15;;;4.68;;
68579;SDS011;55555;52.136;5.424;2022-12-07T01:18:55;13.98;;;5.28;;
68579;SDS011;55555;52.136;5.424;2022-12-07T01:21:28;19.38;;;5.40;;
68579;SDS011;55555;52.136;5.424;2022-12-07T01:24:02;12.45;;;5.13;;
68579;SDS011;55555;52.136;5.424;2022-12-07T01:26:35;8.13;;;4.30;;
68579;SDS011;55555;52.136;5.424;2022-12-07T01:29:02;12.02;;;5.10;;
68579;SDS011;55555;52.136;5.424;2022-12-07T01:31:29;11.75;;;4.93;;
68579;SDS011;55555;52.136;5.424;2022-12-07T01:33:57;14.30;;;4.30;;
68579;SDS011;55555;52.136;5.424;2022-12-07T01:36:28;14.25;;;4.30;;
68579;SDS011;55555;52.136;5.424;2022-12-07T01:39:02;11.73;;;3.90;;
68579;SDS011;55555;52.136;5.424;2022-12-07T01:41:34;10.68;;;3.85;;
68579;SDS011;55555;52.136;5.424;2022-12-07T01:46:46;13.63;;;3.88;;
68579;SDS011;55555;52.136;5.424;2022-12-07T01:49:31;14.05;;;3.92;;
68579;SDS011;55555;52.136;5.424;2022-12-07T01:52:13;10.43;;;3.60;;
68579;SDS011;55555;52.136;5.424;2022-12-07T01:54:46;12.85;;;3.50;;
68579;SDS011;55555;52.136;5.424;2022-12-07T01:57:16;8.98;;;3.50;;
68579;SDS011;55555;52.136;5.424;2022-12-07T01:59:45;11.73;;;2.97;;
68579;SDS011;55555;52.136;5.424;2022-12-07T02:02:18;8.32;;;2.45;;
68579;SDS011;55555;52.136;5.424;2022-12-07T02:04:50;11.47;;;2.63;;
68579;SDS011;55555;52.136;5.424;2022-12-07T02:07:20;11.18;;;2.80;;
68579;SDS011;55555;52.136;5.424;2022-12-07T02:09:48;11.15;;;2.88;;
68579;SDS011;55555;52.136;5.424;2022-12-07T02:12:15;7.78;;;2.42;;
68579;SDS011;55555;52.136;5.424;2022-12-07T02:14:42;14.70;;;2.70;;
68579;SDS011;55555;52.136;5.424;2022-12-07T02:19:58;10.02;;;3.05;;
68579;SDS011;55555;52.136;5.424;2022-12-07T02:29:29;7.35;;;3.05;;
68579;SDS011;55555;52.136;5.424;2022-12-07T02:32:15;12.90;;;3.20;;
68579;SDS011;55555;52.136;5.424;2022-12-07T02:34:51;15.70;;;3.53;;
68579;SDS011;55555;52.136;5.424;2022-12-07T02:43:43;14.55;;;3.30;;
68579;SDS011;55555;52.136;5.424;2022-12-07T02:46:23;12.17;;;3.70;;
68579;SDS011;55555;52.136;5.424;2022-12-07T02:48:58;13.40;;;3.70;;
68579;SDS011;55555;52.136;5.424;2022-12-07T02:51:45;11.48;;;3.58;;
68579;SDS011;55555;52.136;5.424;2022-12-07T02:54:13;8.88;;;3.45;;
68579;SDS011;55555;52.136;5.424;2022-12-07T03:08:06;14.57;;;3.13;;
68579;SDS011;55555;52.136;5.424;2022-12-07T03:11:07;9.57;;;3.13;;
68579;SDS011;55555;52.136;5.424;2022-12-07T03:16:41;15.05;;;2.80;;
68579;SDS011;55555;52.136;5.424;2022-12-07T03:19:35;14.98;;;2.75;;
68579;SDS011;55555;52.136;5.424;2022-12-07T03:22:05;10.85;;;2.63;;
68579;SDS011;55555;52.136;5.424;2022-12-07T03:24:53;13.05;;;2.53;;
68579;SDS011;55555;52.136;5.424;2022-12-07T03:27:25;8.53;;;2.43;;
68579;SDS011;55555;52.136;5.424;2022-12-07T03:30:02;9.90;;;2.05;;
68579;SDS011;55555;52.136;5.424;2022-12-07T03:35:39;4.10;;;1.65;;
68579;SDS011;55555;52.136;5.424;2022-12-07T03:38:32;8.07;;;1.60;;
68579;SDS011;55555;52.136;5.424;2022-12-07T03:41:09;6.23;;;2.03;;
68579;SDS011;55555;52.136;5.424;2022-12-07T03:43:45;5.78;;;1.40;;
68579;SDS011;55555;52.136;5.424;2022-12-07T03:46:19;8.75;;;1.10;;
68579;SDS011;55555;52.136;5.424;2022-12-07T03:49:16;4.88;;;0.88;;
68579;SDS011;55555;52.136;5.424;2022-12-07T03:54:33;6.10;;;1.00;;
68579;SDS011;55555;52.136;5.424;2022-12-07T03:57:08;7.25;;;1.77;;
68579;SDS011;55555;52.136;5.424;2022-12-07T03:59:37;11.88;;;1.73;;
68579;SDS011;55555;52.136;5.424;2022-12-07T04:02:06;7.18;;;1.17;;
68579;SDS011;55555;52.136;5.424;2022-12-07T04:04:34;7.38;;;1.20;;
68579;SDS011;55555;52.136;5.424;2022-12-07T04:07:02;12.27;;;1.20;;
68579;SDS011;55555;52.136;5.424;2022-12-07T04:09:29;8.55;;;1.15;;
68579;SDS011;55555;52.136;5.424;2022-12-07T04:11:56;8.00;;;1.42;;
68579;SDS011;55555;52.136;5.424;2022-12-07T04:14:23;7.65;;;1.40;;
68579;SDS011;55555;52.136;5.424;2022-12-07T04:16:51;8.55;;;1.73;;
68579;SDS011;55555;52.136;5.424;2022-12-07T04:19:24;10.57;;;1.80;;
68579;SDS011;55555;52.136;5.424;2022-12-07T04:21:58;8.75;;;1.48;;
68579;SDS011;55555;52.136;5.424;2022-12-07T04:24:27;11.50;;;1.30;;
68579;SDS011;55555;52.136;5.424;2022-12-07T04:26:54;8.10;;;1.65;;
68579;SDS011;55555;52.136;5.424;2022-12-07T04:29:22;6.88;;;1.55;;
68579;SDS011;55555;52.136;5.424;2022-12-07T04:31:50;9.10;;;1.50;;
68579;SDS011;55555;52.136;5.424;2022-12-07T04:34:17;9.68;;;1.30;;
68579;SDS011;55555;52.136;5.424;2022-12-07T04:36:45;9.75;;;1.38;;
68579;SDS011;55555;52.136;5.424;2022-12-07T04:39:18;9.40;;;1.30;;
68579;SDS011;55555;52.136;5.424;2022-12-07T04:41:52;5.60;;;0.82;;
68579;SDS011;55555;52.136;5.424;2022-12-07T04:44:20;6.63;;;1.20;;
68579;SDS011;55555;52.136;5.424;2022-12-07T04:46:48;9.10;;;1.23;;
68579;SDS011;55555;52.136;5.424;2022-12-07T04:49:16;9.88;;;0.90;;
68579;SDS011;55555;52.136;5.424;2022-12-07T04:51:44;10.15;;;0.80;;
68579;SDS011;55555;52.136;5.424;2022-12-07T04:54:13;7.63;;;1.08;;
68579;SDS011;55555;52.136;5.424;2022-12-07T04:56:41;12.03;;;1.00;;
68579;SDS011;55555;52.136;5.424;2022-12-07T04:59:09;6.45;;;0.82;;
68579;SDS011;55555;52.136;5.424;2022-12-07T05:01:38;6.97;;;1.00;;
68579;SDS011;55555;52.136;5.424;2022-12-07T05:04:06;10.68;;;1.23;;
68579;SDS011;55555;52.136;5.424;2022-12-07T05:06:34;10.20;;;1.05;;
68579;SDS011;55555;52.136;5.424;2022-12-07T05:09:02;5.00;;;0.97;;
68579;SDS011;55555;52.136;5.424;2022-12-07T05:11:30;9.65;;;0.80;;
68579;SDS011;55555;52.136;5.424;2022-12-07T05:14:11;6.38;;;0.73;;
68579;SDS011;55555;52.136;5.424;2022-12-07T05:16:46;8.23;;;0.90;;
68579;SDS011;55555;52.136;5.424;2022-12-07T05:19:17;7.15;;;0.73;;
68579;SDS011;55555;52.136;5.424;2022-12-07T05:21:45;7.27;;;0.70;;
68579;SDS011;55555;52.136;5.424;2022-12-07T05:24:13;7.38;;;0.75;;
68579;SDS011;55555;52.136;5.424;2022-12-07T05:26:42;7.45;;;0.70;;
68579;SDS011;55555;52.136;5.424;2022-12-07T05:29:11;9.77;;;0.68;;
68579;SDS011;55555;52.136;5.424;2022-12-07T05:31:42;8.55;;;0.70;;
68579;SDS011;55555;52.136;5.424;2022-12-07T05:34:10;5.50;;;0.80;;
68579;SDS011;55555;52.136;5.424;2022-12-07T05:36:38;5.57;;;0.60;;
68579;SDS011;55555;52.136;5.424;2022-12-07T05:39:05;7.65;;;0.65;;
68579;SDS011;55555;52.136;5.424;2022-12-07T05:41:33;3.13;;;0.50;;
68579;SDS011;55555;52.136;5.424;2022-12-07T05:44:19;3.72;;;0.50;;
68579;SDS011;55555;52.136;5.424;2022-12-07T05:46:46;6.30;;;0.60;;
68579;SDS011;55555;52.136;5.424;2022-12-07T05:49:13;4.78;;;0.60;;
68579;SDS011;55555;52.136;5.424;2022-12-07T05:51:40;5.30;;;0.50;;
68579;SDS011;55555;52.136;5.424;2022-12-07T05:54:07;4.85;;;0.60;;
68579;SDS011;55555;52.136;5.424;2022-12-07T05:56:34;8.38;;;0.50;;
68579;SDS011;55555;52.136;5.424;2022-12-07T05:59:01;4.37;;;0.50;;
68579;SDS011;55555;52.136;5.424;2022-12-07T06:01:48;4.13;;;0.50;;
68579;SDS011;55555;52.136;5.424;2022-12-07T06:04:23;5.78;;;0.75;;
68579;SDS011;55555;52.136;5.424;2022-12-07T06:06:53;10.00;;;0.60;;
68579;SDS011;55555;52.136;5.424;2022-12-07T06:09:21;3.10;;;0.50;;
68579;SDS011;55555;52.136;5.424;2022-12-07T06:11:51;4.80;;;0.57;;
68579;SDS011;55555;52.136;5.424;2022-12-07T06:14:37;2.38;;;0.50;;
68579;SDS011;55555;52.136;5.424;2022-12-07T06:17:04;7.35;;;0.85;;
68579;SDS011;55555;52.136;5.424;2022-12-07T06:19:32;5.00;;;0.50;;
68579;SDS011;55555;52.136;5.424;2022-12-07T06:21:59;6.07;;;0.60;;
68579;SDS011;55555;52.136;5.424;2022-12-07T06:24:26;7.03;;;0.80;;
68579;SDS011;55555;52.136;5.424;2022-12-07T06:26:54;4.97;;;0.80;;
68579;SDS011;55555;52.136;5.424;2022-12-07T06:29:21;4.20;;;0.60;;
68579;SDS011;55555;52.136;5.424;2022-12-07T06:31:48;5.82;;;0.63;;
68579;SDS011;55555;52.136;5.424;2022-12-07T06:34:17;8.50;;;0.65;;
68579;SDS011;55555;52.136;5.424;2022-12-07T06:36:46;7.87;;;0.90;;
68579;SDS011;55555;52.136;5.424;2022-12-07T06:39:18;10.35;;;0.70;;
68579;SDS011;55555;52.136;5.424;2022-12-07T06:41:47;9.20;;;0.77;;
68579;SDS011;55555;52.136;5.424;2022-12-07T06:44:14;5.70;;;0.60;;
68579;SDS011;55555;52.136;5.424;2022-12-07T06:46:41;5.25;;;0.70;;
68579;SDS011;55555;52.136;5.424;2022-12-07T06:49:08;2.67;;;0.50;;
68579;SDS011;55555;52.136;5.424;2022-12-07T06:51:35;3.50;;;0.60;;
68579;SDS011;55555;52.136;5.424;2022-12-07T06:54:07;6.00;;;1.08;;
68579;SDS011;55555;52.136;5.424;2022-12-07T06:56:36;9.13;;;0.90;;
68579;SDS011;55555;52.136;5.424;2022-12-07T06:59:03;11.35;;;1.10;;
68579;SDS011;55555;52.136;5.424;2022-12-07T07:01:32;7.87;;;1.20;;
68579;SDS011;55555;52.136;5.424;2022-12-07T07:04:01;8.52;;;1.30;;
68579;SDS011;55555;52.136;5.424;2022-12-07T07:06:29;9.60;;;1.20;;
68579;SDS011;55555;52.136;5.424;2022-12-07T07:08:56;4.38;;;0.73;;
68579;SDS011;55555;52.136;5.424;2022-12-07T07:11:23;6.28;;;0.98;;
68579;SDS011;55555;52.136;5.424;2022-12-07T07:13:50;6.13;;;1.00;;
68579;SDS011;55555;52.136;5.424;2022-12-07T07:16:17;10.50;;;1.50;;
68579;SDS011;55555;52.136;5.424;2022-12-07T07:18:44;14.18;;;1.80;;
68579;SDS011;55555;52.136;5.424;2022-12-07T07:21:11;6.55;;;1.33;;
68579;SDS011;55555;52.136;5.424;2022-12-07T07:23:38;12.07;;;1.10;;
68579;SDS011;55555;52.136;5.424;2022-12-07T07:26:06;8.13;;;1.47;;
68579;SDS011;55555;52.136;5.424;2022-12-07T07:28:33;9.10;;;1.45;;
68579;SDS011;55555;52.136;5.424;2022-12-07T07:31:01;5.15;;;1.40;;
68579;SDS011;55555;52.136;5.424;2022-12-07T07:33:29;8.80;;;1.13;;
68579;SDS011;55555;52.136;5.424;2022-12-07T07:35:56;10.02;;;1.45;;
68579;SDS011;55555;52.136;5.424;2022-12-07T07:38:23;7.03;;;1.27;;
68579;SDS011;55555;52.136;5.424;2022-12-07T07:40:50;10.85;;;1.30;;
68579;SDS011;55555;52.136;5.424;2022-12-07T07:43:17;5.50;;;1.08;;
68579;SDS011;55555;52.136;5.424;2022-12-07T07:45:44;7.38;;;1.52;;
68579;SDS011;55555;52.136;5.424;2022-12-07T07:48:11;6.40;;;1.42;;
68579;SDS011;55555;52.136;5.424;2022-12-07T07:50:38;8.97;;;1.70;;
68579;SDS011;55555;52.136;5.424;2022-12-07T07:53:05;7.55;;;1.98;;
68579;SDS011;55555;52.136;5.424;2022-12-07T07:55:33;10.35;;;1.88;;
68579;SDS011;55555;52.136;5.424;2022-12-07T07:58:00;7.93;;;1.52;;
68579;SDS011;55555;52.136;5.424;2022-12-07T08:00:27;8.45;;;1.45;;
68579;SDS011;55555;52.136;5.424;2022-12-07T08:02:54;9.23;;;1.97;;
68579;SDS011;55555;52.136;5.424;2022-12-07T08:05:21;10.18;;;1.85;;
68579;SDS011;55555;52.136;5.424;2022-12-07T08:07:48;10.45;;;1.55;;
68579;SDS011;55555;52.136;5.424;2022-12-07T08:10:15;8.93;;;1.65;;
68579;SDS011;55555;52.136;5.424;2022-12-07T08:12:43;8.68;;;2.08;;
68579;SDS011;55555;52.136;5.424;2022-12-07T08:15:29;9.13;;;1.80;;
68579;SDS011;55555;52.136;5.424;2022-12-07T08:17:57;7.90;;;1.67;;
68579;SDS011;55555;52.136;5.424;2022-12-07T08:20:25;9.70;;;1.92;;
68579;SDS011;55555;52.136;5.424;2022-12-07T08:22:52;12.02;;;2.20;;
68579;SDS011;55555;52.136;5.424;2022-12-07T08:25:20;15.40;;;2.40;;
68579;SDS011;55555;52.136;5.424;2022-12-07T08:27:48;11.43;;;2.77;;
68579;SDS011;55555;52.136;5.424;2022-12-07T08:30:17;8.77;;;2.60;;
68579;SDS011;55555;52.136;5.424;2022-12-07T08:32:45;10.02;;;2.85;;
68579;SDS011;55555;52.136;5.424;2022-12-07T08:35:13;13.25;;;2.20;;
68579;SDS011;55555;52.136;5.424;2022-12-07T08:37:41;13.90;;;1.95;;
68579;SDS011;55555;52.136;5.424;2022-12-07T08:40:09;9.33;;;2.30;;
68579;SDS011;55555;52.136;5.424;2022-12-07T08:42:48;11.35;;;2.53;;
68579;SDS011;55555;52.136;5.424;2022-12-07T08:45:16;14.77;;;2.30;;
68579;SDS011;55555;52.136;5.424;2022-12-07T08:47:53;11.73;;;1.98;;
68579;SDS011;55555;52.136;5.424;2022-12-07T08:50:28;10.43;;;2.15;;
68579;SDS011;55555;52.136;5.424;2022-12-07T08:52:56;15.73;;;2.00;;
68579;SDS011;55555;52.136;5.424;2022-12-07T08:55:25;10.95;;;2.10;;
68579;SDS011;55555;52.136;5.424;2022-12-07T08:57:54;10.43;;;2.22;;
68579;SDS011;55555;52.136;5.424;2022-12-07T09:00:22;11.50;;;1.90;;
68579;SDS011;55555;52.136;5.424;2022-12-07T09:02:50;12.52;;;1.90;;
68579;SDS011;55555;52.136;5.424;2022-12-07T09:05:17;10.03;;;1.27;;
68579;SDS011;55555;52.136;5.424;2022-12-07T09:07:45;12.18;;;1.58;;
68579;SDS011;55555;52.136;5.424;2022-12-07T09:10:16;9.80;;;1.50;;
68579;SDS011;55555;52.136;5.424;2022-12-07T09:12:44;10.23;;;1.13;;
68579;SDS011;55555;52.136;5.424;2022-12-07T09:15:11;8.10;;;1.00;;
68579;SDS011;55555;52.136;5.424;2022-12-07T09:17:38;6.80;;;1.40;;
68579;SDS011;55555;52.136;5.424;2022-12-07T09:20:05;10.85;;;1.40;;
68579;SDS011;55555;52.136;5.424;2022-12-07T09:22:33;10.70;;;1.83;;
68579;SDS011;55555;52.136;5.424;2022-12-07T09:25:01;11.55;;;1.65;;
68579;SDS011;55555;52.136;5.424;2022-12-07T09:27:29;13.88;;;1.95;;
68579;SDS011;55555;52.136;5.424;2022-12-07T09:29:56;12.03;;;2.10;;
68579;SDS011;55555;52.136;5.424;2022-12-07T09:32:23;10.40;;;1.90;;
68579;SDS011;55555;52.136;5.424;2022-12-07T09:34:50;11.93;;;1.98;;
68579;SDS011;55555;52.136;5.424;2022-12-07T09:37:18;14.00;;;2.17;;
68579;SDS011;55555;52.136;5.424;2022-12-07T09:39:45;8.30;;;2.03;;
68579;SDS011;55555;52.136;5.424;2022-12-07T09:42:24;10.30;;;1.40;;
68579;SDS011;55555;52.136;5.424;2022-12-07T09:44:55;12.27;;;1.33;;
68579;SDS011;55555;52.136;5.424;2022-12-07T09:47:22;10.40;;;1.05;;
68579;SDS011;55555;52.136;5.424;2022-12-07T09:49:49;7.50;;;1.27;;
68579;SDS011;55555;52.136;5.424;2022-12-07T09:52:19;6.35;;;0.90;;
68579;SDS011;55555;52.136;5.424;2022-12-07T09:54:52;9.30;;;1.30;;
68579;SDS011;55555;52.136;5.424;2022-12-07T09:57:21;9.65;;;1.10;;
68579;SDS011;55555;52.136;5.424;2022-12-07T09:59:57;10.77;;;1.10;;
68579;SDS011;55555;52.136;5.424;2022-12-07T10:05:14;4.47;;;0.82;;
68579;SDS011;55555;52.136;5.424;2022-12-07T10:07:49;7.83;;;1.10;;
68579;SDS011;55555;52.136;5.424;2022-12-07T10:10:23;4.43;;;0.80;;
68579;SDS011;55555;52.136;5.424;2022-12-07T10:13:04;5.03;;;0.65;;
68579;SDS011;55555;52.136;5.424;2022-12-07T10:18:38;3.25;;;0.60;;
68579;SDS011;55555;52.136;5.424;2022-12-07T10:29:20;8.25;;;1.15;;
68579;SDS011;55555;52.136;5.424;2022-12-07T10:34:31;6.63;;;0.97;;
68579;SDS011;55555;52.136;5.424;2022-12-07T10:39:43;4.40;;;1.00;;
68579;SDS011;55555;52.136;5.424;2022-12-07T10:42:21;7.80;;;0.88;;
68579;SDS011;55555;52.136;5.424;2022-12-07T10:47:52;7.17;;;0.80;;
68579;SDS011;55555;52.136;5.424;2022-12-07T10:56:46;7.50;;;0.98;;
68579;SDS011;55555;52.136;5.424;2022-12-07T11:00:00;5.47;;;0.60;;
68579;SDS011;55555;52.136;5.424;2022-12-07T11:05:43;6.97;;;1.00;;
68579;SDS011;55555;52.136;5.424;2022-12-07T11:08:51;4.45;;;0.93;;
68579;SDS011;55555;52.136;5.424;2022-12-07T11:14:05;7.82;;;0.95;;
68579;SDS011;55555;52.136;5.424;2022-12-07T11:19:49;5.50;;;0.70;;
68579;SDS011;55555;52.136;5.424;2022-12-07T11:25:21;9.48;;;0.70;;
68579;SDS011;55555;52.136;5.424;2022-12-07T11:28:30;8.90;;;1.42;;
68579;SDS011;55555;52.136;5.424;2022-12-07T11:31:30;5.20;;;0.73;;
68579;SDS011;55555;52.136;5.424;2022-12-07T11:37:33;6.15;;;0.70;;
68579;SDS011;55555;52.136;5.424;2022-12-07T11:40:09;5.43;;;1.20;;
68579;SDS011;55555;52.136;5.424;2022-12-07T11:42:52;4.32;;;0.80;;
68579;SDS011;55555;52.136;5.424;2022-12-07T11:45:31;6.60;;;1.00;;
68579;SDS011;55555;52.136;5.424;2022-12-07T11:48:07;7.45;;;1.00;;
68579;SDS011;55555;52.136;5.424;2022-12-07T11:50:51;6.40;;;0.70;;
68579;SDS011;55555;52.136;5.424;2022-12-07T11:53:27;8.15;;;0.85;;
68579;SDS011;55555;52.136;5.424;2022-12-07T11:56:11;7.05;;;0.98;;
68579;SDS011;55555;52.136;5.424;2022-12-07T11:59:25;7.70;;;0.80;;
68579;SDS011;55555;52.136;5.424;2022-12-07T12:01:56;9.73;;;1.08;;
68579;SDS011;55555;52.136;5.424;2022-12-07T12:04:29;4.63;;;0.88;;
68579;SDS011;55555;52.136;5.424;2022-12-07T12:07:07;9.70;;;0.80;;
68579;SDS011;55555;52.136;5.424;2022-12-07T12:10:01;7.45;;;0.70;;
68579;SDS011;55555;52.136;5.424;2022-12-07T12:22:19;6.20;;;0.60;;
68579;SDS011;55555;52.136;5.424;2022-12-07T12:24:50;3.08;;;0.60;;
68579;SDS011;55555;52.136;5.424;2022-12-07T12:27:33;5.50;;;0.60;;
68579;SDS011;55555;52.136;5.424;2022-12-07T12:30:04;9.07;;;0.75;;
68579;SDS011;55555;52.136;5.424;2022-12-07T12:32:50;9.00;;;0.90;;
68579;SDS011;55555;52.136;5.424;2022-12-07T12:35:26;5.55;;;0.70;;
68579;SDS011;55555;52.136;5.424;2022-12-07T12:41:50;4.33;;;0.80;;
68579;SDS011;55555;52.136;5.424;2022-12-07T12:51:54;4.00;;;0.50;;
68579;SDS011;55555;52.136;5.424;2022-12-07T12:54:24;4.73;;;0.70;;
68579;SDS011;55555;52.136;5.424;2022-12-07T12:56:59;6.40;;;0.52;;
68579;SDS011;55555;52.136;5.424;2022-12-07T13:05:25;4.95;;;0.65;;
68579;SDS011;55555;52.136;5.424;2022-12-07T13:07:56;3.90;;;0.33;;
68579;SDS011;55555;52.136;5.424;2022-12-07T13:10:47;2.67;;;0.52;;
68579;SDS011;55555;52.136;5.424;2022-12-07T13:23:33;1.25;;;0.30;;
68579;SDS011;55555;52.136;5.424;2022-12-07T13:29:11;0.90;;;0.30;;
68579;SDS011;55555;52.136;5.424;2022-12-07T13:31:44;1.85;;;0.50;;
68579;SDS011;55555;52.136;5.424;2022-12-07T13:34:32;2.00;;;0.40;;
68579;SDS011;55555;52.136;5.424;2022-12-07T13:37:12;2.05;;;0.50;;
68579;SDS011;55555;52.136;5.424;2022-12-07T13:40:20;3.92;;;0.60;;
68579;SDS011;55555;52.136;5.424;2022-12-07T13:42:56;4.00;;;0.60;;
68579;SDS011;55555;52.136;5.424;2022-12-07T13:45:41;4.78;;;0.75;;
68579;SDS011;55555;52.136;5.424;2022-12-07T13:48:20;4.83;;;0.60;;
68579;SDS011;55555;52.136;5.424;2022-12-07T13:51:02;2.70;;;0.60;;
68579;SDS011;55555;52.136;5.424;2022-12-07T13:53:30;4.60;;;0.70;;
68579;SDS011;55555;52.136;5.424;2022-12-07T13:55:58;4.38;;;0.77;;
68579;SDS011;55555;52.136;5.424;2022-12-07T13:58:29;8.90;;;1.27;;
68579;SDS011;55555;52.136;5.424;2022-12-07T14:00:58;6.10;;;1.07;;
68579;SDS011;55555;52.136;5.424;2022-12-07T14:03:30;4.68;;;1.20;;
68579;SDS011;55555;52.136;5.424;2022-12-07T14:06:46;4.13;;;1.35;;
68579;SDS011;55555;52.136;5.424;2022-12-07T14:09:07;7.50;;;1.92;;
68579;SDS011;55555;52.136;5.424;2022-12-07T14:11:49;4.45;;;1.27;;
68579;SDS011;55555;52.136;5.424;2022-12-07T14:14:23;8.07;;;0.97;;
68579;SDS011;55555;52.136;5.424;2022-12-07T14:17:12;8.60;;;1.20;;
68579;SDS011;55555;52.136;5.424;2022-12-07T14:19:55;6.15;;;1.05;;
68579;SDS011;55555;52.136;5.424;2022-12-07T14:22:25;5.43;;;1.20;;
68579;SDS011;55555;52.136;5.424;2022-12-07T14:25:20;7.20;;;1.30;;
68579;SDS011;55555;52.136;5.424;2022-12-07T14:27:59;6.93;;;1.10;;
68579;SDS011;55555;52.136;5.424;2022-12-07T14:30:28;7.50;;;1.35;;
68579;SDS011;55555;52.136;5.424;2022-12-07T14:33:00;5.05;;;0.90;;
68579;SDS011;55555;52.136;5.424;2022-12-07T14:35:30;10.38;;;1.52;;
68579;SDS011;55555;52.136;5.424;2022-12-07T14:37:59;6.75;;;1.00;;
68579;SDS011;55555;52.136;5.424;2022-12-07T14:40:27;4.80;;;1.07;;
68579;SDS011;55555;52.136;5.424;2022-12-07T14:43:06;8.32;;;1.10;;
68579;SDS011;55555;52.136;5.424;2022-12-07T14:45:38;6.80;;;1.00;;
68579;SDS011;55555;52.136;5.424;2022-12-07T14:48:12;7.70;;;1.17;;
68579;SDS011;55555;52.136;5.424;2022-12-07T14:51:01;8.45;;;1.10;;
68579;SDS011;55555;52.136;5.424;2022-12-07T14:53:50;6.17;;;1.43;;
68579;SDS011;55555;52.136;5.424;2022-12-07T14:56:23;7.45;;;1.48;;
68579;SDS011;55555;52.136;5.424;2022-12-07T14:58:51;4.28;;;1.23;;
68579;SDS011;55555;52.136;5.424;2022-12-07T15:01:18;6.88;;;0.75;;
68579;SDS011;55555;52.136;5.424;2022-12-07T15:03:45;4.78;;;0.60;;
68579;SDS011;55555;52.136;5.424;2022-12-07T15:06:13;4.57;;;0.70;;
68579;SDS011;55555;52.136;5.424;2022-12-07T15:08:42;4.72;;;1.10;;
68579;SDS011;55555;52.136;5.424;2022-12-07T15:11:16;4.30;;;0.65;;
68579;SDS011;55555;52.136;5.424;2022-12-07T15:13:44;4.30;;;0.50;;
68579;SDS011;55555;52.136;5.424;2022-12-07T15:16:30;3.38;;;0.60;;
68579;SDS011;55555;52.136;5.424;2022-12-07T15:19:18;4.07;;;0.60;;
68579;SDS011;55555;52.136;5.424;2022-12-07T15:21:54;7.85;;;0.98;;
68579;SDS011;55555;52.136;5.424;2022-12-07T15:24:23;2.20;;;0.50;;
68579;SDS011;55555;52.136;5.424;2022-12-07T15:26:50;2.95;;;0.47;;
68579;SDS011;55555;52.136;5.424;2022-12-07T15:29:18;5.65;;;0.50;;
68579;SDS011;55555;52.136;5.424;2022-12-07T15:31:49;5.27;;;0.60;;
68579;SDS011;55555;52.136;5.424;2022-12-07T15:34:26;3.25;;;0.60;;
68579;SDS011;55555;52.136;5.424;2022-12-07T15:37:03;4.10;;;0.60;;
68579;SDS011;55555;52.136;5.424;2022-12-07T15:39:31;9.27;;;0.75;;
68579;SDS011;55555;52.136;5.424;2022-12-07T15:41:58;5.38;;;0.77;;
68579;SDS011;55555;52.136;5.424;2022-12-07T15:44:25;4.33;;;0.97;;
68579;SDS011;55555;52.136;5.424;2022-12-07T15:47:11;4.90;;;0.70;;
68579;SDS011;55555;52.136;5.424;2022-12-07T15:49:38;4.07;;;0.80;;
68579;SDS011;55555;52.136;5.424;2022-12-07T15:52:05;4.35;;;0.65;;
68579;SDS011;55555;52.136;5.424;2022-12-07T15:54:32;7.07;;;0.90;;
68579;SDS011;55555;52.136;5.424;2022-12-07T15:56:59;5.07;;;0.80;;
68579;SDS011;55555;52.136;5.424;2022-12-07T15:59:27;5.22;;;1.00;;
68579;SDS011;55555;52.136;5.424;2022-12-07T16:01:55;3.58;;;1.00;;
68579;SDS011;55555;52.136;5.424;2022-12-07T16:04:22;5.03;;;1.23;;
68579;SDS011;55555;52.136;5.424;2022-12-07T16:06:49;6.10;;;1.00;;
68579;SDS011;55555;52.136;5.424;2022-12-07T16:09:17;3.60;;;0.90;;
68579;SDS011;55555;52.136;5.424;2022-12-07T16:11:45;4.88;;;1.40;;
68579;SDS011;55555;52.136;5.424;2022-12-07T16:14:13;7.32;;;1.40;;
68579;SDS011;55555;52.136;5.424;2022-12-07T16:16:40;6.07;;;1.10;;
68579;SDS011;55555;52.136;5.424;2022-12-07T16:19:08;7.90;;;1.20;;
68579;SDS011;55555;52.136;5.424;2022-12-07T16:21:35;5.23;;;1.20;;
68579;SDS011;55555;52.136;5.424;2022-12-07T16:24:02;5.70;;;1.30;;
68579;SDS011;55555;52.136;5.424;2022-12-07T16:26:31;7.55;;;1.50;;
68579;SDS011;55555;52.136;5.424;2022-12-07T16:28:58;7.50;;;1.60;;
68579;SDS011;55555;52.136;5.424;2022-12-07T16:31:26;6.63;;;1.88;;
68579;SDS011;55555;52.136;5.424;2022-12-07T16:33:54;7.37;;;1.80;;
68579;SDS011;55555;52.136;5.424;2022-12-07T16:36:24;5.57;;;1.58;;
68579;SDS011;55555;52.136;5.424;2022-12-07T16:39:13;7.32;;;1.23;;
68579;SDS011;55555;52.136;5.424;2022-12-07T16:41:40;6.55;;;1.40;;
68579;SDS011;55555;52.136;5.424;2022-12-07T16:44:09;7.70;;;1.70;;
68579;SDS011;55555;52.136;5.424;2022-12-07T16:46:38;6.77;;;1.80;;
68579;SDS011;55555;52.136;5.424;2022-12-07T16:49:08;5.90;;;1.95;;
68579;SDS011;55555;52.136;5.424;2022-12-07T16:51:41;8.43;;;2.55;;
68579;SDS011;55555;52.136;5.424;2022-12-07T16:54:12;10.73;;;2.80;;
68579;SDS011;55555;52.136;5.424;2022-12-07T16:56:39;10.23;;;2.65;;
68579;SDS011;55555;52.136;5.424;2022-12-07T16:59:07;7.63;;;2.53;;
68579;SDS011;55555;52.136;5.424;2022-12-07T17:01:35;6.63;;;2.50;;
68579;SDS011;55555;52.136;5.424;2022-12-07T17:04:02;8.55;;;2.90;;
68579;SDS011;55555;52.136;5.424;2022-12-07T17:06:31;7.22;;;2.88;;
68579;SDS011;55555;52.136;5.424;2022-12-07T17:08:58;7.22;;;2.67;;
68579;SDS011;55555;52.136;5.424;2022-12-07T17:11:26;7.23;;;2.80;;
68579;SDS011;55555;52.136;5.424;2022-12-07T17:13:56;9.00;;;1.73;;
68579;SDS011;55555;52.136;5.424;2022-12-07T17:16:42;5.90;;;1.73;;